Time;durP1;ratioP1;P1;durP2;ratioP2;P2;SDS_P1;SDS_P2;PMS_P1;PMS_P2;Temp;Humidity;BMP_temperature;BMP_pressure;BME280_temperature;BME280_humidity;BME280_pressure;Samples;Min_cycle;Max_cycle;Signal;HPM_P1;HPM_P2
2021/10/03 00:01:07;;;;;;;0.10;0.10;;;14.90;99.90;;;;;;6264004;23;20012;-90
2021/10/03 00:03:37;;;;;;;0.00;0.00;;;14.90;99.90;;;;;;6264035;23;20019;-89
2021/10/03 00:06:05;;;;;;;0.10;0.05;;;15.00;99.90;;;;;;6263826;23;20023;-88
2021/10/03 00:08:32;;;;;;;0.00;0.00;;;15.10;99.90;;;;;;6264094;23;20048;-89
2021/10/03 00:10:58;;;;;;;0.10;0.10;;;14.70;99.90;;;;;;6263830;23;20071;-88
2021/10/03 00:13:26;;;;;;;0.00;0.00;;;15.00;99.90;;;;;;6263732;23;20487;-89
2021/10/03 00:15:55;;;;;;;0.10;0.10;;;15.00;99.90;;;;;;6264009;23;20008;-91
2021/10/03 00:18:23;;;;;;;0.00;0.00;;;15.10;99.90;;;;;;6263669;23;20012;-88
2021/10/03 00:20:51;;;;;;;0.00;0.00;;;15.10;99.90;;;;;;6264513;23;20055;-89
2021/10/03 00:23:18;;;;;;;0.55;0.55;;;15.10;99.90;;;;;;6263562;23;20016;-88
2021/10/03 00:25:45;;;;;;;0.00;0.00;;;15.10;99.90;;;;;;6239542;23;20339;-91
2021/10/03 00:28:13;;;;;;;0.00;0.00;;;15.10;99.90;;;;;;6263839;23;20019;-89
2021/10/03 00:30:42;;;;;;;0.00;0.00;;;15.10;99.90;;;;;;6263493;23;20023;-88
2021/10/03 00:33:09;;;;;;;0.00;0.00;;;15.20;99.90;;;;;;6263773;23;20099;-87
2021/10/03 00:35:37;;;;;;;0.95;0.60;;;15.10;99.90;;;;;;6263831;23;20015;-89
2021/10/03 00:38:07;;;;;;;0.10;0.10;;;15.20;99.90;;;;;;6264152;23;20011;-91
2021/10/03 00:40:38;;;;;;;0.10;0.10;;;15.20;99.90;;;;;;6239081;23;20449;-91
2021/10/03 00:43:06;;;;;;;0.00;0.00;;;15.20;99.90;;;;;;6264090;23;20024;-91
2021/10/03 00:45:33;;;;;;;0.10;0.10;;;15.30;99.90;;;;;;6263997;23;20016;-92
2021/10/03 00:48:00;;;;;;;0.00;0.00;;;15.30;99.90;;;;;;6264028;23;20012;-92
2021/10/03 00:50:28;;;;;;;0.03;0.00;;;15.30;99.90;;;;;;6263351;23;20329;-93
2021/10/03 00:52:55;;;;;;;0.00;0.00;;;15.30;99.90;;;;;;6263956;23;20436;-91
2021/10/03 00:55:23;;;;;;;0.00;0.00;;;15.20;99.90;;;;;;6238785;23;20440;-90
2021/10/03 00:57:58;;;;;;;0.00;0.00;;;15.30;99.90;;;;;;6238791;23;20020;-91
2021/10/03 01:00:29;;;;;;;0.00;0.00;;;15.30;99.90;;;;;;6263763;23;20398;-91
2021/10/03 01:03:06;;;;;;;0.00;0.00;;;15.30;99.90;;;;;;6263856;22;20329;-91
2021/10/03 01:05:41;;;;;;;0.10;0.10;;;15.30;99.90;;;;;;6263429;23;20050;-91
2021/10/03 01:08:09;;;;;;;0.05;0.05;;;15.30;99.90;;;;;;6239434;23;20023;-91
2021/10/03 01:10:39;;;;;;;0.00;0.00;;;15.30;99.90;;;;;;6263425;23;20460;-91
2021/10/03 01:13:12;;;;;;;0.00;0.00;;;15.40;99.90;;;;;;6238502;23;20016;-92
2021/10/03 01:15:41;;;;;;;0.00;0.00;;;15.50;99.90;;;;;;6263953;23;20019;-91
2021/10/03 01:18:13;;;;;;;0.00;0.00;;;15.40;99.90;;;;;;6263898;23;20008;-92
2021/10/03 01:20:43;;;;;;;0.00;0.00;;;15.50;99.90;;;;;;6264452;23;20012;-91
2021/10/03 01:23:15;;;;;;;0.10;0.10;;;15.60;99.90;;;;;;6264128;23;20392;-91
2021/10/03 01:25:57;;;;;;;0.00;0.00;;;15.60;99.90;;;;;;6263307;23;20345;-92
2021/10/03 01:28:30;;;;;;;0.00;0.00;;;16.40;99.90;;;;;;6263907;23;20039;-92
2021/10/03 01:31:22;;;;;;;;;;;;;;;;;;;;;
2021/10/03 01:33:52;;;;;;;0.00;0.00;;;15.70;99.90;;;;;;6288572;23;20015;-93
2021/10/03 01:36:24;;;;;;;0.00;0.00;;;15.70;99.90;;;;;;6263775;23;20014;-93
2021/10/03 01:38:52;;;;;;;0.10;0.10;;;15.60;99.90;;;;;;6239396;23;20008;-92
2021/10/03 01:41:19;;;;;;;0.10;0.10;;;15.60;99.90;;;;;;6262922;23;20114;-92
2021/10/03 01:43:47;;;;;;;0.00;0.00;;;15.60;99.90;;;;;;6263043;23;20016;-92
2021/10/03 01:46:14;;;;;;;0.00;0.00;;;15.60;99.90;;;;;;6263328;23;20070;-92
2021/10/03 01:48:41;;;;;;;0.08;0.08;;;15.60;99.90;;;;;;6262794;23;20048;-92
2021/10/03 01:51:10;;;;;;;0.00;0.00;;;15.60;99.90;;;;;;6263191;23;20070;-92
2021/10/03 01:53:47;;;;;;;0.00;0.00;;;15.60;99.90;;;;;;6263070;23;20069;-91
2021/10/03 01:56:23;;;;;;;0.00;0.00;;;15.60;99.90;;;;;;6263566;23;20024;-91
2021/10/03 01:59:06;;;;;;;0.00;0.00;;;15.50;99.90;;;;;;6263475;23;20019;-92
2021/10/03 02:01:33;;;;;;;0.00;0.00;;;15.60;99.90;;;;;;6239982;23;20016;-90
2021/10/03 02:04:16;;;;;;;0.00;0.00;;;15.50;99.90;;;;;;6263248;23;20025;-93
2021/10/03 02:06:53;;;;;;;0.00;0.00;;;15.50;99.90;;;;;;6263254;23;20012;-91
2021/10/03 02:09:22;;;;;;;0.00;0.00;;;15.50;99.90;;;;;;6262704;23;20016;-91
2021/10/03 02:11:55;;;;;;;0.00;0.00;;;15.50;99.90;;;;;;6238865;23;20032;-92
2021/10/03 02:14:34;;;;;;;0.03;0.03;;;15.50;99.90;;;;;;6263411;23;20325;-92
2021/10/03 02:17:06;;;;;;;0.00;0.00;;;15.50;99.90;;;;;;6263734;23;20337;-92
2021/10/03 02:19:33;;;;;;;0.20;0.10;;;15.50;99.90;;;;;;6262584;23;20013;-92
2021/10/03 02:22:00;;;;;;;0.00;0.00;;;15.50;99.90;;;;;;6263164;23;20079;-93
2021/10/03 02:24:29;;;;;;;0.00;0.00;;;15.50;99.90;;;;;;6263003;23;20034;-93
2021/10/03 02:26:56;;;;;;;0.08;0.08;;;15.50;99.90;;;;;;6262730;23;20012;-92
2021/10/03 02:29:23;;;;;;;0.00;0.00;;;15.50;99.90;;;;;;6262924;23;20047;-92
2021/10/03 02:31:50;;;;;;;0.10;0.10;;;15.50;99.90;;;;;;6262731;23;20039;-92
2021/10/03 02:34:17;;;;;;;0.10;0.10;;;15.50;99.90;;;;;;6262993;23;20095;-92
2021/10/03 02:36:44;;;;;;;0.00;0.00;;;15.50;99.90;;;;;;6262826;23;20020;-92
2021/10/03 02:39:11;;;;;;;0.00;0.00;;;15.50;99.90;;;;;;6263296;23;20011;-91
2021/10/03 02:41:38;;;;;;;0.00;0.00;;;15.50;99.90;;;;;;6263032;23;20333;-91
2021/10/03 02:44:14;;;;;;;0.00;0.00;;;15.50;99.90;;;;;;6263707;23;20012;-93
2021/10/03 02:46:41;;;;;;;0.08;0.08;;;15.60;99.90;;;;;;6263042;23;20013;-93
2021/10/03 02:49:11;;;;;;;0.03;0.03;;;15.60;99.90;;;;;;6262869;23;20015;-91
2021/10/03 02:51:38;;;;;;;0.00;0.00;;;15.60;99.90;;;;;;6262591;23;20095;-92
2021/10/03 02:54:07;;;;;;;0.10;0.10;;;15.60;99.90;;;;;;6263217;23;20012;-93
2021/10/03 02:56:34;;;;;;;0.08;0.08;;;15.60;99.90;;;;;;6262872;23;20328;-92
2021/10/03 02:59:01;;;;;;;0.00;0.00;;;15.30;99.90;;;;;;6264934;23;20043;-92
2021/10/03 03:01:28;;;;;;;0.00;0.00;;;15.60;99.90;;;;;;6239660;23;20016;-91
2021/10/03 03:03:55;;;;;;;0.00;0.00;;;15.60;99.90;;;;;;6264541;23;20532;-91
2021/10/03 03:06:21;;;;;;;0.00;0.00;;;15.60;99.90;;;;;;6265068;23;20095;-90
2021/10/03 03:08:48;;;;;;;0.00;0.00;;;15.60;99.90;;;;;;6264294;23;20023;-90
2021/10/03 03:11:16;;;;;;;0.00;0.00;;;15.60;99.90;;;;;;6264891;23;20020;-91
2021/10/03 03:13:43;;;;;;;0.00;0.00;;;15.60;99.90;;;;;;6239317;23;20015;-91
2021/10/03 03:16:10;;;;;;;0.00;0.00;;;15.60;99.90;;;;;;6265067;23;20008;-91
2021/10/03 03:18:43;;;;;;;0.00;0.00;;;15.50;99.90;;;;;;6240821;23;20313;-94
2021/10/03 03:21:15;;;;;;;0.00;0.00;;;15.40;99.90;;;;;;6265239;23;20020;-91
2021/10/03 03:23:42;;;;;;;0.10;0.10;;;15.60;99.90;;;;;;6240585;23;20375;-91
2021/10/03 03:26:10;;;;;;;0.00;0.00;;;15.60;99.90;;;;;;6264882;23;20012;-91
2021/10/03 03:28:37;;;;;;;0.00;0.00;;;15.60;99.90;;;;;;6264653;23;20016;-90
2021/10/03 03:31:04;;;;;;;0.00;0.00;;;15.60;99.90;;;;;;6239628;23;20012;-90
2021/10/03 03:33:31;;;;;;;0.00;0.00;;;15.60;99.90;;;;;;6264540;23;20090;-89
2021/10/03 03:35:58;;;;;;;0.00;0.00;;;15.70;99.90;;;;;;6265130;23;20008;-89
2021/10/03 03:38:25;;;;;;;0.00;0.00;;;15.70;99.90;;;;;;6264730;23;20016;-91
2021/10/03 03:40:52;;;;;;;0.70;0.20;;;15.70;99.90;;;;;;6264216;23;20012;-89
2021/10/03 03:43:19;;;;;;;0.00;0.00;;;15.70;99.90;;;;;;6264394;23;20016;-90
2021/10/03 03:45:46;;;;;;;0.00;0.00;;;15.70;99.90;;;;;;6264350;23;20012;-90
2021/10/03 03:48:14;;;;;;;0.00;0.00;;;15.70;99.90;;;;;;6264527;23;20087;-90
2021/10/03 03:50:43;;;;;;;0.00;0.00;;;15.70;99.90;;;;;;6264328;23;20016;-90
2021/10/03 03:53:13;;;;;;;0.00;0.00;;;15.70;99.90;;;;;;6264256;23;20043;-91
2021/10/03 03:55:40;;;;;;;0.00;0.00;;;16.00;99.90;;;;;;6263726;23;20016;-90
2021/10/03 03:58:10;;;;;;;0.00;0.00;;;15.80;99.90;;;;;;6264466;23;20066;-91
2021/10/03 04:00:36;;;;;;;0.13;0.03;;;15.80;99.90;;;;;;6263785;23;20035;-91
2021/10/03 04:03:03;;;;;;;0.00;0.00;;;15.80;99.90;;;;;;6264504;22;20016;-90
2021/10/03 04:05:30;;;;;;;0.00;0.00;;;15.80;99.90;;;;;;6264595;23;20016;-90
2021/10/03 04:07:57;;;;;;;0.00;0.00;;;15.90;99.90;;;;;;6238330;23;20437;-91
2021/10/03 04:10:24;;;;;;;0.00;0.00;;;15.80;99.90;;;;;;6264011;23;20012;-91
2021/10/03 04:12:51;;;;;;;0.00;0.00;;;15.90;99.90;;;;;;6263504;23;20429;-90
2021/10/03 04:15:20;;;;;;;0.00;0.00;;;15.90;99.90;;;;;;6264225;23;20008;-89
2021/10/03 04:17:47;;;;;;;0.15;0.10;;;15.90;99.90;;;;;;6262181;23;20015;-90
2021/10/03 04:20:14;;;;;;;0.00;0.00;;;15.90;99.90;;;;;;6239005;23;20393;-90
2021/10/03 04:22:41;;;;;;;0.10;0.10;;;15.70;99.90;;;;;;6263713;23;20012;-89
2021/10/03 04:25:09;;;;;;;0.00;0.00;;;15.90;99.90;;;;;;6264278;23;20012;-91
2021/10/03 04:27:37;;;;;;;0.00;0.00;;;15.90;99.90;;;;;;6264193;23;20020;-92
2021/10/03 04:30:05;;;;;;;0.10;0.10;;;16.00;99.90;;;;;;6264267;23;20385;-91
2021/10/03 04:32:35;;;;;;;0.00;0.00;;;15.90;99.90;;;;;;6264194;23;20388;-91
2021/10/03 04:35:02;;;;;;;0.00;0.00;;;15.90;99.90;;;;;;6263557;23;20384;-92
2021/10/03 04:38:05;;;;;;;0.00;0.00;;;15.90;99.90;;;;;;6264821;23;20012;-96
2021/10/03 04:40:35;;;;;;;0.00;0.00;;;15.70;99.90;;;;;;6265039;23;20016;-92
2021/10/03 04:43:07;;;;;;;0.00;0.00;;;15.60;99.90;;;;;;6263268;23;20016;-94
2021/10/03 04:45:42;;;;;;;0.00;0.00;;;15.80;99.90;;;;;;6265698;23;20349;-95
2021/10/03 05:03:56;;;;;;;0.00;0.00;;;15.10;99.90;;;;;;6321883;22;20020;-96
2021/10/03 05:06:26;;;;;;;0.00;0.00;;;15.00;99.90;;;;;;6269444;22;20041;-95
2021/10/03 05:12:08;;;;;;;0.05;0.05;;;14.70;99.90;;;;;;6277118;22;20038;-95
2021/10/03 05:14:35;;;;;;;0.00;0.00;;;15.00;99.90;;;;;;6270117;22;20017;-95
2021/10/03 05:17:02;;;;;;;0.00;0.00;;;14.90;99.90;;;;;;6269055;22;20046;-95
2021/10/03 05:19:29;;;;;;;0.00;0.00;;;14.90;99.90;;;;;;6269018;22;20012;-95
2021/10/03 05:21:56;;;;;;;0.00;0.00;;;14.90;99.90;;;;;;6268275;22;20008;-92
2021/10/03 05:24:23;;;;;;;0.00;0.00;;;14.80;99.90;;;;;;6268943;22;20018;-95
2021/10/03 05:26:50;;;;;;;0.00;0.00;;;14.90;99.90;;;;;;6243542;22;20073;-96
2021/10/03 05:29:16;;;;;;;0.00;0.00;;;14.80;99.90;;;;;;6268454;22;20008;-95
2021/10/03 05:31:43;;;;;;;0.00;0.00;;;14.80;99.90;;;;;;6268457;22;20093;-91
2021/10/03 05:34:10;;;;;;;0.00;0.00;;;14.80;99.90;;;;;;6268733;22;20008;-96
2021/10/03 05:36:37;;;;;;;0.00;0.00;;;14.80;99.90;;;;;;6269010;22;20388;-96
2021/10/03 05:39:04;;;;;;;0.00;0.00;;;14.70;99.90;;;;;;6246316;22;20012;-95
2021/10/03 05:41:31;;;;;;;0.00;0.00;;;14.70;99.90;;;;;;6269332;22;20065;-95
2021/10/03 05:43:58;;;;;;;0.00;0.00;;;14.70;99.90;;;;;;6269027;22;20444;-95
2021/10/03 05:46:28;;;;;;;0.00;0.00;;;14.70;99.90;;;;;;6270115;22;20318;-95
2021/10/03 05:48:55;;;;;;;0.00;0.00;;;14.70;99.90;;;;;;6269128;22;20019;-96
2021/10/03 05:51:22;;;;;;;0.00;0.00;;;14.50;99.90;;;;;;6244336;22;20456;-95
2021/10/03 05:53:49;;;;;;;0.00;0.00;;;14.70;99.90;;;;;;6268451;22;20339;-95
2021/10/03 05:56:23;;;;;;;0.00;0.00;;;14.70;99.90;;;;;;6267805;22;20073;-94
2021/10/03 05:58:53;;;;;;;0.00;0.00;;;14.80;99.90;;;;;;6267827;22;20087;-93
2021/10/03 06:01:23;;;;;;;0.00;0.00;;;14.60;99.90;;;;;;6243570;22;20019;-94
2021/10/03 06:03:52;;;;;;;0.00;0.00;;;14.60;99.90;;;;;;6267165;22;20015;-94
2021/10/03 06:06:22;;;;;;;0.00;0.00;;;14.50;99.90;;;;;;6267699;22;20020;-94
2021/10/03 06:08:49;;;;;;;0.00;0.00;;;14.50;99.90;;;;;;6268153;22;20018;-94
2021/10/03 06:11:16;;;;;;;0.00;0.00;;;14.50;99.90;;;;;;6268014;22;20395;-95
2021/10/03 06:13:45;;;;;;;0.00;0.00;;;14.40;99.90;;;;;;6268568;22;20363;-95
2021/10/03 06:19:12;;;;;;;0.00;0.00;;;14.30;99.90;;;;;;6294060;22;20073;-95
2021/10/03 06:21:44;;;;;;;0.00;0.00;;;14.30;99.90;;;;;;6244371;22;20016;-94
2021/10/03 06:24:11;;;;;;;0.00;0.00;;;14.30;99.90;;;;;;6268314;22;20016;-95
2021/10/03 06:26:47;;;;;;;0.00;0.00;;;14.40;99.90;;;;;;6269694;22;20381;-95
2021/10/03 06:29:18;;;;;;;0.00;0.00;;;14.20;99.90;;;;;;6220869;22;20015;-92
2021/10/03 06:31:56;;;;;;;0.00;0.00;;;14.20;99.90;;;;;;6245378;22;20100;-96
2021/10/03 07:10:25;;;;;;;0.00;0.00;;;14.20;99.90;;;;;;6326910;22;19915;-96
2021/10/03 07:12:56;;;;;;;0.00;0.00;;;14.20;99.90;;;;;;6226471;22;20064;-96
2021/10/03 07:18:42;;;;;;;0.00;0.00;;;14.20;99.90;;;;;;6300572;22;20012;-96
2021/10/03 07:27:57;;;;;;;;;;;;;;;;;;;;;
2021/10/03 07:30:46;;;;;;;;;;;;;;;;;;;;;
2021/10/03 07:33:19;;;;;;;0.00;0.00;;;14.20;99.90;;;;;;6206986;23;20013;-95
2021/10/03 07:35:47;;;;;;;0.00;0.00;;;14.20;99.90;;;;;;6179180;23;20083;-96
2021/10/03 11:22:45;;;;;;;0.00;0.00;;;13.20;99.90;;;;;;6322262;22;20023;-95
2021/10/03 11:25:18;;;;;;;0.00;0.00;;;13.20;99.90;;;;;;6313485;22;20585;-93
2021/10/03 11:27:53;;;;;;;0.00;0.00;;;13.20;99.90;;;;;;6297887;22;20016;-94
2021/10/03 11:30:20;;;;;;;0.00;0.00;;;13.10;99.90;;;;;;6296704;22;20367;-93
2021/10/03 11:32:47;;;;;;;0.00;0.00;;;13.20;99.90;;;;;;6295312;22;20336;-95
2021/10/03 11:35:17;;;;;;;0.00;0.00;;;13.10;99.90;;;;;;6296550;22;20043;-94
2021/10/03 11:37:51;;;;;;;0.00;0.00;;;13.10;99.90;;;;;;6272573;22;20086;-93
2021/10/03 11:40:27;;;;;;;0.00;0.00;;;13.20;99.90;;;;;;6296099;22;20012;-96
2021/10/03 11:43:00;;;;;;;0.10;0.10;;;13.10;99.90;;;;;;6297685;22;20019;-95
2021/10/03 11:45:41;;;;;;;0.00;0.00;;;13.20;99.90;;;;;;6296379;22;20333;-95
2021/10/03 11:48:26;;;;;;;0.00;0.00;;;13.20;99.90;;;;;;6273863;22;20023;-94
2021/10/03 11:53:54;;;;;;;0.00;0.00;;;13.20;99.90;;;;;;6308424;22;20313;-95
2021/10/03 11:56:21;;;;;;;0.00;0.00;;;13.10;99.90;;;;;;6268747;22;20015;-92
2021/10/03 11:58:49;;;;;;;0.03;0.03;;;13.20;99.90;;;;;;6295142;22;20012;-92
2021/10/03 12:01:27;;;;;;;0.00;0.00;;;13.20;99.90;;;;;;6294892;22;20022;-93
2021/10/03 12:04:03;;;;;;;0.00;0.00;;;13.20;99.90;;;;;;6296241;22;20047;-95
2021/10/03 12:06:32;;;;;;;0.00;0.00;;;13.20;99.90;;;;;;6294098;22;20066;-91
2021/10/03 12:09:17;;;;;;;0.00;0.00;;;13.20;99.90;;;;;;6272880;22;20026;-94
2021/10/03 12:15:26;;;;;;;0.00;0.00;;;13.30;99.90;;;;;;6321083;22;20340;-94
2021/10/03 12:17:56;;;;;;;0.00;0.00;;;13.30;99.90;;;;;;6293387;22;20022;-94
2021/10/03 12:20:51;;;;;;;0.00;0.00;;;13.30;99.90;;;;;;6294358;22;20462;-94
2021/10/03 12:23:54;;;;;;;0.00;0.00;;;13.30;99.90;;;;;;6295419;22;20011;-94
2021/10/03 12:26:31;;;;;;;0.00;0.00;;;13.30;99.90;;;;;;6295311;22;20094;-91
2021/10/03 12:29:14;;;;;;;0.00;0.00;;;13.40;99.90;;;;;;6294638;22;20310;-94
2021/10/03 12:32:06;;;;;;;0.00;0.00;;;13.50;99.90;;;;;;6296066;22;20020;-94
2021/10/03 12:35:01;;;;;;;0.00;0.00;;;13.50;99.90;;;;;;6294158;22;20047;-94
2021/10/03 12:37:32;;;;;;;0.00;0.00;;;13.50;99.90;;;;;;6294605;22;20018;-92
2021/10/03 12:40:19;;;;;;;0.00;0.00;;;13.60;99.90;;;;;;6295008;22;20015;-94
2021/10/03 12:42:46;;;;;;;0.00;0.00;;;13.60;99.90;;;;;;6294483;22;20023;-91
2021/10/03 12:45:16;;;;;;;0.00;0.00;;;13.70;99.90;;;;;;6270611;22;20332;-94
2021/10/03 12:47:42;;;;;;;0.00;0.00;;;13.70;99.90;;;;;;6294055;22;20011;-94
2021/10/03 12:50:10;;;;;;;0.00;0.00;;;13.70;99.90;;;;;;6294593;22;20038;-94
2021/10/03 12:56:54;;;;;;;0.00;0.00;;;13.70;99.90;;;;;;6147069;23;20036;-96
2021/10/03 12:59:37;;;;;;;0.00;0.00;;;13.80;99.90;;;;;;6094426;23;20014;-95
2021/10/03 13:02:07;;;;;;;0.00;0.00;;;13.80;99.90;;;;;;6143753;23;20017;-94
2021/10/03 13:04:37;;;;;;;0.10;0.10;;;13.90;99.90;;;;;;6132750;23;20045;-92
2021/10/03 13:07:04;;;;;;;0.08;0.08;;;13.90;99.90;;;;;;6279069;22;20011;-92
2021/10/03 13:09:31;;;;;;;0.00;0.00;;;13.90;99.90;;;;;;6293387;22;20015;-93
2021/10/03 13:12:01;;;;;;;0.00;0.00;;;13.90;99.90;;;;;;6268991;22;20072;-93
2021/10/03 13:14:27;;;;;;;0.00;0.00;;;14.00;99.90;;;;;;6269020;22;20327;-89
2021/10/03 13:16:54;;;;;;;0.00;0.00;;;14.00;99.90;;;;;;6294630;22;20047;-89
2021/10/03 13:19:21;;;;;;;0.00;0.00;;;14.00;99.90;;;;;;6293705;22;20337;-89
2021/10/03 13:21:48;;;;;;;0.03;0.03;;;14.10;99.90;;;;;;6293762;22;20054;-89
2021/10/03 13:24:15;;;;;;;0.00;0.00;;;14.10;99.90;;;;;;6293695;22;20020;-88
2021/10/03 13:26:42;;;;;;;0.00;0.00;;;13.90;99.90;;;;;;6243292;22;20022;-89
2021/10/03 13:29:08;;;;;;;0.00;0.00;;;14.20;99.90;;;;;;6294123;22;20023;-89
2021/10/03 13:31:35;;;;;;;0.10;0.10;;;14.20;99.90;;;;;;6293280;22;20019;-89
2021/10/03 13:34:03;;;;;;;0.10;0.10;;;14.10;99.90;;;;;;6268732;22;20012;-89
2021/10/03 13:36:34;;;;;;;0.03;0.03;;;14.10;99.90;;;;;;6294114;22;20018;-90
2021/10/03 13:39:05;;;;;;;0.00;0.00;;;14.10;99.90;;;;;;6270360;22;20064;-90
2021/10/03 13:41:35;;;;;;;0.00;0.00;;;14.20;99.90;;;;;;6294607;22;20424;-91
2021/10/03 13:44:02;;;;;;;0.00;0.00;;;14.20;99.90;;;;;;6268981;22;20086;-93
2021/10/03 13:46:29;;;;;;;0.10;0.10;;;14.20;99.90;;;;;;6293988;22;20120;-90
2021/10/03 13:48:56;;;;;;;0.00;0.00;;;14.20;99.90;;;;;;6268549;22;20051;-88
2021/10/03 13:51:23;;;;;;;0.10;0.10;;;14.20;99.90;;;;;;6268445;22;20050;-90
2021/10/03 13:53:50;;;;;;;0.00;0.00;;;14.10;99.90;;;;;;6293268;22;20047;-91
2021/10/03 13:56:18;;;;;;;0.00;0.00;;;14.10;99.90;;;;;;6293890;22;20083;-91
2021/10/03 13:58:44;;;;;;;0.00;0.00;;;14.10;99.90;;;;;;6293751;22;20047;-93
2021/10/03 14:01:11;;;;;;;0.00;0.00;;;14.10;99.90;;;;;;6293836;22;20016;-91
2021/10/03 14:03:38;;;;;;;0.10;0.10;;;14.10;99.90;;;;;;6293095;22;20153;-91
2021/10/03 14:06:05;;;;;;;0.00;0.00;;;14.10;99.90;;;;;;6268897;22;20249;-93
2021/10/03 14:08:32;;;;;;;0.10;0.10;;;14.10;99.90;;;;;;6294419;22;20016;-94
2021/10/03 14:10:59;;;;;;;0.00;0.00;;;14.00;99.90;;;;;;6293245;22;20100;-89
2021/10/03 14:13:26;;;;;;;0.00;0.00;;;14.00;99.90;;;;;;6268758;22;20016;-90
2021/10/03 14:15:53;;;;;;;0.00;0.00;;;14.00;99.90;;;;;;6293553;22;20012;-91
2021/10/03 14:18:20;;;;;;;0.00;0.00;;;14.00;99.90;;;;;;6293374;22;20313;-87
2021/10/03 14:20:46;;;;;;;0.00;0.00;;;14.00;99.90;;;;;;6242440;22;20023;-89
2021/10/03 14:23:14;;;;;;;0.00;0.00;;;14.00;99.90;;;;;;6293311;22;20011;-88
2021/10/03 14:25:42;;;;;;;0.00;0.00;;;13.90;99.90;;;;;;6293055;22;20440;-88
2021/10/03 14:28:10;;;;;;;0.05;0.05;;;13.90;99.90;;;;;;6268216;22;20094;-93
2021/10/03 14:30:39;;;;;;;0.00;0.00;;;13.60;99.90;;;;;;6293250;22;20043;-90
2021/10/03 14:33:08;;;;;;;0.00;0.00;;;13.90;99.90;;;;;;6293925;22;20012;-92
2021/10/03 14:35:39;;;;;;;0.00;0.00;;;13.80;99.90;;;;;;6293588;22;20008;-93
2021/10/03 14:38:16;;;;;;;0.00;0.00;;;13.70;99.90;;;;;;6270321;22;20022;-93
2021/10/03 14:40:43;;;;;;;0.00;0.00;;;13.50;99.90;;;;;;6269469;22;20015;-93
2021/10/03 14:43:10;;;;;;;0.00;0.00;;;13.50;99.90;;;;;;6293367;22;20344;-93
2021/10/03 14:45:36;;;;;;;0.00;0.00;;;13.40;99.90;;;;;;6293265;22;20015;-91
2021/10/03 14:48:06;;;;;;;0.00;0.00;;;13.40;99.90;;;;;;6293405;22;20033;-92
2021/10/03 14:50:33;;;;;;;0.00;0.00;;;13.30;99.90;;;;;;6268372;22;20012;-92
2021/10/03 14:53:04;;;;;;;0.00;0.00;;;13.30;99.90;;;;;;6244672;22;20022;-91
2021/10/03 14:55:31;;;;;;;0.00;0.00;;;13.20;99.90;;;;;;6295255;22;20053;-88
2021/10/03 14:58:05;;;;;;;0.10;0.10;;;13.20;99.90;;;;;;6294817;22;20362;-92
2021/10/03 15:00:32;;;;;;;0.00;0.00;;;13.10;99.90;;;;;;6295436;22;20061;-88
2021/10/03 15:02:59;;;;;;;0.00;0.00;;;13.10;99.90;;;;;;6295195;22;20094;-89
2021/10/03 15:05:28;;;;;;;0.00;0.00;;;13.10;99.90;;;;;;6295639;22;20016;-94
2021/10/03 15:07:55;;;;;;;0.00;0.00;;;13.20;99.90;;;;;;6292500;22;20019;-88
2021/10/03 15:10:22;;;;;;;0.00;0.00;;;13.20;99.90;;;;;;6270156;22;20016;-90
2021/10/03 15:12:48;;;;;;;0.00;0.00;;;13.10;99.90;;;;;;6294615;22;20018;-88
2021/10/03 15:15:19;;;;;;;0.00;0.00;;;13.20;99.90;;;;;;6295422;22;20478;-91
2021/10/03 15:17:46;;;;;;;0.00;0.00;;;13.10;99.90;;;;;;6294585;22;20436;-91
2021/10/03 15:24:26;;;;;;;0.00;0.00;;;13.10;99.90;;;;;;6108184;23;20116;-93
2021/10/03 15:27:37;;;;;;;;;;;;;;;;;;;;;
2021/10/03 15:31:10;;;;;;;;;;;;;;;;;;;;;
2021/10/03 15:33:50;;;;;;;0.00;0.00;;;12.70;99.90;;;;;;6028462;23;20027;-92
2021/10/03 15:36:22;;;;;;;0.00;0.00;;;12.50;99.90;;;;;;6005649;23;20022;-92
2021/10/03 15:39:13;;;;;;;0.00;0.00;;;12.50;99.90;;;;;;6068397;23;20021;-92
2021/10/03 15:41:52;;;;;;;0.00;0.00;;;12.30;99.90;;;;;;6115083;23;20013;-91
2021/10/03 15:44:30;;;;;;;0.00;0.00;;;12.50;99.90;;;;;;6179264;23;20013;-92
2021/10/03 15:47:07;;;;;;;0.00;0.00;;;12.10;99.90;;;;;;6177794;23;20109;-93
2021/10/03 15:49:41;;;;;;;0.00;0.00;;;12.00;99.90;;;;;;6155472;23;20013;-91
2021/10/03 15:59:48;;;;;;;0.00;0.00;;;11.80;99.90;;;;;;6197068;23;20558;-90
2021/10/03 16:02:15;;;;;;;0.10;0.10;;;11.70;99.90;;;;;;6152794;23;20100;-90
2021/10/03 16:04:42;;;;;;;0.10;0.10;;;11.80;99.90;;;;;;6237997;23;20012;-89
2021/10/03 16:07:09;;;;;;;0.00;0.00;;;11.80;99.90;;;;;;6238784;23;20016;-91
2021/10/03 16:09:36;;;;;;;0.20;0.20;;;11.80;99.90;;;;;;6239067;23;20449;-91
2021/10/03 16:12:03;;;;;;;0.00;0.00;;;11.80;99.90;;;;;;6238694;23;20043;-90
2021/10/03 16:14:30;;;;;;;0.00;0.00;;;11.80;99.90;;;;;;6238730;23;20016;-90
2021/10/03 16:17:00;;;;;;;0.00;0.00;;;11.80;99.90;;;;;;6238860;23;20043;-89
2021/10/03 16:19:28;;;;;;;0.00;0.00;;;11.80;99.90;;;;;;6214498;23;20381;-89
2021/10/03 16:22:06;;;;;;;;;;;;;;;;;;;;;
2021/10/03 16:24:47;;;;;;;0.00;0.00;;;11.80;99.90;;;;;;6269587;22;20027;-94
2021/10/03 16:38:02;;;;;;;0.00;0.00;;;11.80;99.90;;;;;;5998372;23;20061;-90
2021/10/03 16:41:31;;;;;;;0.00;0.00;;;11.80;99.90;;;;;;6032528;23;20023;-91
2021/10/03 16:43:59;;;;;;;0.10;0.10;;;11.80;99.90;;;;;;6010007;23;20074;-91
2021/10/03 16:46:39;;;;;;;0.10;0.10;;;11.80;99.90;;;;;;6216897;23;20078;-90
2021/10/03 16:49:06;;;;;;;0.00;0.00;;;11.80;99.90;;;;;;6205479;23;20019;-90
2021/10/03 16:51:39;;;;;;;0.00;0.00;;;11.80;99.90;;;;;;6206328;23;20111;-90
2021/10/03 16:54:08;;;;;;;0.00;0.00;;;11.80;99.90;;;;;;6239121;22;20482;-90
2021/10/03 16:56:41;;;;;;;0.00;0.00;;;11.80;99.90;;;;;;6294000;22;20486;-91
2021/10/03 16:59:11;;;;;;;0.00;0.00;;;11.80;99.90;;;;;;6270982;22;20050;-91
2021/10/03 17:01:38;;;;;;;0.00;0.00;;;11.80;99.90;;;;;;6269424;22;20085;-92
2021/10/03 17:08:12;;;;;;;0.35;0.30;;;11.80;99.90;;;;;;6196577;23;20024;-90
2021/10/03 17:10:39;;;;;;;0.00;0.00;;;11.80;99.90;;;;;;6165686;22;20103;-90
2021/10/03 17:13:06;;;;;;;0.00;0.00;;;11.70;99.90;;;;;;6293783;22;20019;-90
2021/10/03 17:15:36;;;;;;;0.00;0.00;;;11.80;99.90;;;;;;6293995;22;20023;-90
2021/10/03 17:18:03;;;;;;;0.00;0.00;;;11.70;99.90;;;;;;6293865;22;20019;-90
2021/10/03 17:20:36;;;;;;;0.00;0.00;;;11.70;99.90;;;;;;6268533;22;20023;-90
2021/10/03 17:23:04;;;;;;;0.00;0.00;;;11.70;99.90;;;;;;6293089;22;20007;-91
2021/10/03 17:25:31;;;;;;;0.00;0.00;;;11.70;99.90;;;;;;6292784;22;20019;-90
2021/10/03 17:28:00;;;;;;;0.00;0.00;;;11.70;99.90;;;;;;6293750;22;20019;-90
2021/10/03 17:30:30;;;;;;;0.00;0.00;;;11.70;99.90;;;;;;6293592;22;20016;-91
2021/10/03 17:32:57;;;;;;;0.00;0.00;;;11.70;99.90;;;;;;6268708;22;20016;-90
2021/10/03 17:35:24;;;;;;;0.00;0.00;;;11.70;99.90;;;;;;6294292;22;20091;-91
2021/10/03 17:37:51;;;;;;;0.03;0.03;;;11.70;99.90;;;;;;6293679;22;20012;-90
2021/10/03 17:40:23;;;;;;;0.00;0.00;;;11.60;99.90;;;;;;6294558;22;20432;-91
2021/10/03 17:42:51;;;;;;;0.00;0.00;;;11.60;99.90;;;;;;6294289;22;20015;-90
2021/10/03 17:45:18;;;;;;;0.00;0.00;;;11.60;99.90;;;;;;6293598;22;20018;-90
2021/10/03 17:47:49;;;;;;;0.00;0.00;;;11.60;99.90;;;;;;6268662;22;20023;-91
2021/10/03 17:50:17;;;;;;;0.00;0.00;;;11.60;99.90;;;;;;6293224;22;20026;-91
2021/10/03 17:52:47;;;;;;;0.00;0.00;;;11.60;99.90;;;;;;6294043;22;20011;-91
2021/10/03 17:55:18;;;;;;;0.00;0.00;;;11.50;99.90;;;;;;6293458;22;20011;-91
2021/10/03 17:57:47;;;;;;;0.00;0.00;;;11.40;99.90;;;;;;6293374;22;20085;-90
2021/10/03 18:00:15;;;;;;;0.00;0.00;;;11.40;99.90;;;;;;6293275;22;20336;-91
2021/10/03 18:02:43;;;;;;;0.00;0.00;;;11.40;99.90;;;;;;6293290;22;20064;-90
2021/10/03 18:05:11;;;;;;;0.00;0.00;;;11.40;99.90;;;;;;6293068;22;20039;-88
2021/10/03 18:07:38;;;;;;;0.00;0.00;;;11.20;99.90;;;;;;6293235;22;20015;-89
2021/10/03 18:10:06;;;;;;;0.00;0.00;;;11.40;99.90;;;;;;6292947;22;20039;-90
2021/10/03 18:12:36;;;;;;;0.00;0.00;;;11.40;99.90;;;;;;6293603;22;20034;-90
2021/10/03 18:15:06;;;;;;;0.00;0.00;;;11.40;99.90;;;;;;6293575;22;20022;-90
2021/10/03 18:17:33;;;;;;;0.00;0.00;;;11.30;99.90;;;;;;6268514;22;20011;-90
2021/10/03 18:20:01;;;;;;;0.10;0.10;;;11.30;99.90;;;;;;6267850;22;20019;-90
2021/10/03 18:22:28;;;;;;;0.00;0.00;;;11.40;99.90;;;;;;6294056;22;20019;-91
2021/10/03 18:24:55;;;;;;;0.00;0.00;;;11.40;99.90;;;;;;6293303;22;20069;-91
2021/10/03 18:27:29;;;;;;;0.00;0.00;;;11.30;99.90;;;;;;6295022;22;20444;-91
2021/10/03 18:29:59;;;;;;;0.00;0.00;;;11.30;99.90;;;;;;6270216;22;20008;-91
2021/10/03 18:32:37;;;;;;;0.00;0.00;;;11.30;99.90;;;;;;6294796;22;20317;-91
2021/10/03 18:35:10;;;;;;;0.00;0.00;;;11.30;99.90;;;;;;6295151;22;20042;-91
2021/10/03 18:37:37;;;;;;;0.00;0.00;;;11.20;99.90;;;;;;6295648;22;20012;-91
2021/10/03 18:40:07;;;;;;;0.00;0.00;;;11.20;99.90;;;;;;6269817;22;20091;-90